Time;durP1;ratioP1;P1;durP2;ratioP2;P2;SDS_P1;SDS_P2;PMS_P1;PMS_P2;Temp;Humidity;BMP_temperature;BMP_pressure;BME280_temperature;BME280_humidity;BME280_pressure;Samples;Min_cycle;Max_cycle;Signal;HPM_P1;HPM_P2
2023/04/02 00:02:32;;;;;;;8.73;1.77;;;9.30;95.10;;;9.35;57.87;94077.31;5021450;28;20472;-63
2023/04/02 00:05:50;;;;;;;6.93;1.57;;;9.30;95.00;;;9.32;58.26;94078.44;5017969;28;20511;-58
2023/04/02 00:08:26;;;;;;;1.10;1.00;;;9.30;95.10;;;9.34;58.15;94080.91;4994669;28;20492;-63
2023/04/02 00:10:56;;;;;;;3.47;1.17;;;9.30;95.10;;;9.34;57.86;94070.41;5021308;28;20826;-60
2023/04/02 00:13:33;;;;;;;1.53;0.90;;;9.30;94.70;;;9.37;57.75;94069.28;5016117;28;20589;-63
2023/04/02 00:16:02;;;;;;;4.57;1.40;;;9.30;94.70;;;9.36;57.63;94078.13;5016906;28;20893;-58
2023/04/02 00:18:29;;;;;;;2.40;1.50;;;9.40;94.80;;;9.41;57.72;94081.13;5017809;28;20449;-59
2023/04/02 00:21:03;;;;;;;19.83;1.50;;;9.30;94.70;;;9.42;57.37;94075.72;5016911;28;20497;-64
2023/04/02 00:23:30;;;;;;;2.03;1.20;;;9.40;94.70;;;9.44;57.65;94079.03;5013811;28;20470;-58
2023/04/02 00:25:59;;;;;;;1.60;0.93;;;9.40;94.70;;;9.47;57.19;94075.28;5022462;28;20557;-58
2023/04/02 00:28:26;;;;;;;1.50;0.97;;;9.40;94.70;;;9.47;57.36;94064.78;5014637;28;20453;-58
2023/04/02 00:30:58;;;;;;;2.20;1.27;;;9.40;94.60;;;9.49;57.56;94070.69;5016560;28;20475;-63
2023/04/02 00:33:27;;;;;;;1.47;0.93;;;9.50;94.80;;;9.50;57.11;94067.09;5016815;28;20875;-58
2023/04/02 00:35:55;;;;;;;5.70;1.13;;;9.50;94.60;;;9.49;57.25;94063.63;5013736;28;20477;-60
2023/04/02 00:38:25;;;;;;;1.20;0.87;;;9.40;94.40;;;9.49;57.19;94057.56;5017471;28;20523;-63
2023/04/02 00:40:54;;;;;;;2.50;1.00;;;9.40;94.20;;;9.49;56.97;94054.94;5012479;28;20688;-64
2023/04/02 00:43:23;;;;;;;1.87;1.20;;;9.50;94.10;;;9.49;56.65;94063.63;5012942;28;20548;-64
2023/04/02 00:45:55;;;;;;;1.00;0.90;;;9.50;94.10;;;9.52;57.02;94067.75;5015886;28;20473;-63
2023/04/02 00:48:36;;;;;;;1.60;0.93;;;9.50;94.00;;;9.54;56.80;94063.16;5012536;28;20477;-63
2023/04/02 00:51:13;;;;;;;1.23;1.10;;;9.50;93.80;;;9.57;56.33;94064.66;5012264;28;20492;-63
2023/04/02 00:53:40;;;;;;;0.83;0.63;;;9.50;93.80;;;9.56;56.38;94066.47;5013021;28;20457;-58
2023/04/02 00:56:15;;;;;;;1.00;0.70;;;9.50;93.70;;;9.57;56.45;94062.84;5014501;28;21090;-58
2023/04/02 00:58:44;;;;;;;2.30;0.60;;;9.50;93.80;;;9.59;56.55;94063.56;5013230;28;20488;-63
2023/04/02 01:01:17;;;;;;;2.50;0.80;;;9.50;93.70;;;9.59;56.52;94067.97;5013473;28;20491;-58
2023/04/02 01:03:56;;;;;;;1.67;0.97;;;9.50;93.70;;;9.59;56.54;94071.44;5013484;28;20446;-58
2023/04/02 01:06:29;;;;;;;2.07;0.73;;;9.60;93.70;;;9.61;56.46;94068.66;5014795;28;20495;-57
2023/04/02 01:09:26;;;;;;;1.93;1.37;;;9.60;93.60;;;9.62;56.27;94070.28;5012435;28;20461;-63
2023/04/02 01:12:10;;;;;;;0.90;0.80;;;9.60;93.60;;;9.62;56.17;94072.91;5017892;28;20859;-63
2023/04/02 01:14:52;;;;;;;3.70;1.27;;;9.60;93.50;;;9.63;56.38;94072.75;5018056;28;20834;-64
2023/04/02 01:17:47;;;;;;;2.30;0.90;;;9.60;93.50;;;9.62;56.57;94073.75;5014291;28;20453;-58
2023/04/02 01:20:57;;;;;;;1.67;1.07;;;9.60;93.70;;;9.58;57.27;94077.66;5014589;28;20940;-63
2023/04/02 01:23:27;;;;;;;1.23;1.10;;;9.50;94.00;;;9.53;57.04;94079.91;5014985;28;20452;-62
2023/04/02 01:25:57;;;;;;;1.40;0.97;;;9.50;94.00;;;9.46;57.42;94078.88;5013912;28;20917;-57
2023/04/02 01:28:28;;;;;;;2.97;0.77;;;9.40;94.10;;;9.43;57.63;94084.41;5014854;28;20520;-59
2023/04/02 01:30:57;;;;;;;1.30;0.90;;;9.40;94.30;;;9.39;57.50;94077.81;5013007;28;21194;-64
2023/04/02 01:33:29;;;;;;;7.63;1.17;;;9.40;94.40;;;9.35;57.28;94082.56;5013848;28;21357;-57
2023/04/02 01:36:01;;;;;;;3.03;1.20;;;9.30;94.40;;;9.31;57.60;94083.81;5015764;28;20481;-58
2023/04/02 01:38:31;;;;;;;3.33;1.03;;;9.30;94.60;;;9.26;58.06;94086.91;5013505;28;20473;-58
2023/04/02 01:41:02;;;;;;;2.27;0.83;;;9.30;94.70;;;9.22;57.74;94090.00;5017935;28;20491;-65
2023/04/02 01:43:32;;;;;;;2.90;1.10;;;9.20;94.70;;;9.17;57.99;94090.47;5017004;28;20967;-57
2023/04/02 01:46:05;;;;;;;3.20;1.27;;;9.10;94.60;;;9.11;57.88;94084.00;5013189;28;20470;-58
2023/04/02 01:48:32;;;;;;;1.37;1.00;;;9.10;94.80;;;9.08;58.20;94088.75;5018235;28;20986;-58
2023/04/02 01:51:02;;;;;;;1.13;1.03;;;9.10;95.10;;;9.04;58.13;94085.56;5018134;28;21073;-58
2023/04/02 01:53:30;;;;;;;1.20;0.90;;;9.00;95.00;;;9.00;58.47;94091.25;5017043;28;20479;-64
2023/04/02 01:55:59;;;;;;;1.77;1.27;;;9.00;95.20;;;8.91;58.39;94085.94;5014438;28;20993;-64
2023/04/02 01:58:28;;;;;;;1.70;1.60;;;8.90;95.20;;;8.81;59.03;94087.00;5012665;28;20453;-64
2023/04/02 02:00:58;;;;;;;1.60;1.50;;;8.80;95.80;;;8.73;58.99;94079.88;5015761;28;20488;-64
2023/04/02 02:03:27;;;;;;;2.37;2.17;;;8.70;95.70;;;8.66;59.40;94081.41;5012979;28;20464;-64
2023/04/02 02:05:54;;;;;;;1.97;1.37;;;8.70;96.10;;;8.62;59.03;94080.91;5012893;28;20492;-60
2023/04/02 02:08:33;;;;;;;2.53;1.77;;;8.60;96.10;;;8.54;60.10;94073.78;5013127;28;20457;-60
2023/04/02 02:11:00;;;;;;;1.93;1.70;;;8.60;96.60;;;8.50;60.55;94080.25;5007174;28;20491;-64
2023/04/02 02:13:28;;;;;;;1.80;1.70;;;8.50;96.80;;;8.46;60.52;94092.03;5017456;28;20988;-58
2023/04/02 02:15:58;;;;;;;1.60;1.50;;;8.50;96.70;;;8.40;60.60;94082.91;5009812;28;20532;-57
2023/04/02 02:18:26;;;;;;;4.60;2.37;;;8.40;96.90;;;8.36;60.48;94088.59;5016330;28;20673;-58
2023/04/02 02:20:54;;;;;;;1.80;1.70;;;8.40;97.40;;;8.34;61.00;94082.69;5012726;28;20496;-63
2023/04/02 02:23:21;;;;;;;1.77;1.43;;;8.40;97.30;;;8.32;61.48;94079.38;5014651;28;20836;-58
2023/04/02 02:25:48;;;;;;;2.10;1.67;;;8.30;97.90;;;8.26;61.33;94078.97;5010908;28;21016;-59
2023/04/02 02:28:17;;;;;;;2.03;1.93;;;8.30;98.00;;;8.22;62.24;94082.03;5013545;28;20508;-64
2023/04/02 02:30:46;;;;;;;2.27;1.60;;;8.20;98.30;;;8.17;61.51;94085.09;5014906;28;20497;-58
2023/04/02 02:33:17;;;;;;;3.77;1.37;;;8.20;98.30;;;8.14;61.60;94088.00;5012327;28;20850;-59
2023/04/02 02:35:50;;;;;;;1.70;1.60;;;8.20;98.10;;;8.15;61.47;94091.44;5014144;28;20481;-59
2023/04/02 02:38:48;;;;;;;3.43;1.67;;;8.10;98.10;;;8.13;61.74;94082.91;5012646;28;20454;-65
2023/04/02 02:41:19;;;;;;;1.60;1.50;;;8.10;98.00;;;8.13;61.58;94086.34;5010111;28;20559;-63
2023/04/02 02:43:55;;;;;;;1.63;1.43;;;8.10;98.30;;;8.13;61.17;94088.16;5012695;28;20463;-64
2023/04/02 02:46:23;;;;;;;1.60;1.50;;;8.10;98.30;;;8.13;61.48;94086.34;5011624;28;20484;-58
2023/04/02 02:48:50;;;;;;;2.10;1.50;;;8.10;98.40;;;8.13;61.31;94083.72;5016120;28;20861;-63
2023/04/02 02:51:25;;;;;;;2.67;1.90;;;8.10;98.20;;;8.15;61.41;94083.56;5007418;28;20473;-58
2023/04/02 02:53:54;;;;;;;4.60;1.90;;;8.20;98.00;;;8.15;61.38;94068.72;5012052;28;20456;-58
2023/04/02 02:56:21;;;;;;;4.40;1.80;;;8.20;98.30;;;8.16;61.13;94075.56;5013419;28;20526;-65
2023/04/02 02:58:49;;;;;;;1.40;1.20;;;8.20;98.20;;;8.20;60.79;94076.94;5013327;28;20461;-58
2023/04/02 03:01:17;;;;;;;1.40;1.10;;;8.20;97.80;;;8.22;61.27;94074.19;5013678;28;20508;-57
2023/04/02 03:03:45;;;;;;;2.17;1.97;;;8.20;97.70;;;8.25;60.64;94074.69;5013583;28;20821;-64
2023/04/02 03:06:19;;;;;;;2.33;1.50;;;8.30;97.80;;;8.26;60.43;94080.78;5010983;28;20476;-65
2023/04/02 03:08:52;;;;;;;2.50;1.90;;;8.30;97.50;;;8.25;61.07;94085.19;5014558;28;20512;-58
2023/04/02 03:11:23;;;;;;;3.53;1.73;;;8.30;97.60;;;8.24;60.27;94074.84;5008447;28;20955;-65
2023/04/02 03:13:51;;;;;;;2.80;2.23;;;8.30;97.50;;;8.22;60.49;94085.47;5014554;28;20462;-63
2023/04/02 03:16:21;;;;;;;5.27;1.63;;;8.20;97.50;;;8.22;60.22;94082.84;5012166;28;20932;-56
2023/04/02 03:18:51;;;;;;;1.67;1.57;;;8.20;97.60;;;8.21;60.52;94086.47;5009726;28;20469;-62
2023/04/02 03:21:25;;;;;;;1.90;1.43;;;8.20;97.50;;;8.21;60.89;94096.94;5013011;28;21038;-59
2023/04/02 03:23:57;;;;;;;1.90;1.30;;;8.20;97.90;;;8.20;61.01;94097.09;5014562;28;20798;-58
2023/04/02 03:26:28;;;;;;;1.50;1.40;;;8.20;97.50;;;8.16;60.65;94087.84;5009749;28;20482;-58
2023/04/02 03:28:59;;;;;;;3.73;1.70;;;8.20;97.50;;;8.13;60.71;94091.56;5013695;28;20516;-63
2023/04/02 03:31:32;;;;;;;1.70;1.60;;;8.10;97.50;;;8.10;60.81;94086.63;5008599;28;20480;-63
2023/04/02 03:34:00;;;;;;;1.80;1.70;;;8.10;97.50;;;8.11;61.00;94085.66;5013675;28;20458;-63
2023/04/02 03:36:30;;;;;;;4.70;1.77;;;8.10;97.70;;;8.08;60.83;94084.16;5013954;28;20468;-58
2023/04/02 03:39:04;;;;;;;2.17;1.43;;;8.10;97.50;;;8.07;60.93;94086.91;5009569;28;20468;-63
2023/04/02 03:41:35;;;;;;;1.77;1.67;;;8.10;97.80;;;8.06;60.83;94090.53;5012051;28;20488;-58
2023/04/02 03:44:06;;;;;;;2.13;1.63;;;8.10;97.70;;;8.04;60.86;94092.44;5010554;28;20836;-65
2023/04/02 03:46:37;;;;;;;3.10;1.87;;;8.00;97.70;;;8.01;60.94;94092.72;5012622;28;20502;-58
2023/04/02 03:49:06;;;;;;;1.63;1.53;;;8.00;97.90;;;7.99;61.10;94086.81;5011627;28;20461;-59
2023/04/02 03:51:36;;;;;;;2.20;2.00;;;8.00;97.90;;;7.97;61.67;94094.00;5011976;28;20544;-63
2023/04/02 03:54:05;;;;;;;1.50;1.20;;;8.00;97.90;;;7.94;60.96;94091.66;5015944;28;20474;-64
2023/04/02 03:56:38;;;;;;;3.87;1.20;;;7.90;97.70;;;7.89;61.59;94095.53;5015255;28;20819;-58
2023/04/02 03:59:12;;;;;;;1.20;1.10;;;7.90;97.90;;;7.85;61.31;94091.56;5013472;28;21000;-63
2023/04/02 04:01:43;;;;;;;1.40;1.30;;;7.90;97.80;;;7.82;61.37;94085.78;5011920;28;20493;-62
2023/04/02 04:04:13;;;;;;;3.50;1.40;;;7.90;98.10;;;7.78;61.04;94095.72;5008523;28;21279;-58
2023/04/02 04:06:42;;;;;;;1.53;1.30;;;7.80;97.90;;;7.73;61.57;94100.56;5012648;28;20472;-63
2023/04/02 04:09:16;;;;;;;2.40;1.63;;;7.80;98.20;;;7.68;61.93;94102.75;5013349;28;20511;-59
2023/04/02 04:11:45;;;;;;;1.70;1.30;;;7.80;98.30;;;7.65;61.82;94105.66;5013552;28;20473;-65
2023/04/02 04:14:16;;;;;;;2.33;1.80;;;7.70;98.30;;;7.62;62.15;94104.16;5012556;28;20561;-59
2023/04/02 04:16:47;;;;;;;4.30;1.60;;;7.70;98.30;;;7.60;61.94;94097.41;5015363;28;20484;-59
2023/04/02 04:19:17;;;;;;;2.70;2.27;;;7.60;98.50;;;7.58;61.80;94117.66;5013384;28;20468;-57
2023/04/02 04:21:44;;;;;;;5.53;2.03;;;7.60;98.30;;;7.57;61.99;94105.53;5015403;28;20497;-59
2023/04/02 04:24:20;;;;;;;5.27;2.57;;;7.60;98.40;;;7.56;61.83;94103.88;5008611;28;20467;-58
2023/04/02 04:26:53;;;;;;;3.63;2.53;;;7.60;98.70;;;7.55;62.76;94118.75;5012005;28;20556;-64
2023/04/02 04:29:33;;;;;;;2.20;2.00;;;7.60;99.00;;;7.55;61.97;94121.38;5012260;28;20461;-67
2023/04/02 04:32:15;;;;;;;8.27;1.80;;;7.60;98.80;;;7.57;62.07;94123.84;5007893;28;21001;-57
2023/04/02 04:34:45;;;;;;;3.20;1.60;;;7.60;98.70;;;7.54;62.12;94117.94;5011294;28;20444;-65
2023/04/02 04:37:20;;;;;;;8.37;1.73;;;7.60;98.70;;;7.55;61.81;94129.22;5010171;28;20504;-65
2023/04/02 04:39:53;;;;;;;2.20;1.70;;;7.60;98.70;;;7.54;62.05;94128.41;5012109;28;20459;-66
2023/04/02 04:42:22;;;;;;;4.20;2.13;;;7.60;98.60;;;7.54;62.46;94123.19;5009305;28;20485;-58
2023/04/02 04:44:53;;;;;;;2.53;2.33;;;7.60;98.70;;;7.56;61.81;94123.03;5008485;28;20520;-64
2023/04/02 04:47:23;;;;;;;2.60;2.10;;;7.60;98.90;;;7.58;61.96;94112.44;5012951;28;20457;-64
2023/04/02 04:49:53;;;;;;;2.67;2.47;;;7.60;98.70;;;7.57;62.16;94122.06;5012208;28;20981;-56
2023/04/02 04:52:22;;;;;;;2.60;2.40;;;7.60;98.50;;;7.64;62.26;94119.72;5022326;28;20556;-57
2023/04/02 04:54:50;;;;;;;3.10;2.70;;;7.70;98.60;;;7.68;61.42;94131.53;5015168;28;20463;-58
2023/04/02 04:57:28;;;;;;;8.53;2.30;;;7.70;98.50;;;7.72;62.23;94130.31;5015721;28;21195;-57
2023/04/02 04:59:58;;;;;;;3.30;3.00;;;7.70;98.50;;;7.75;61.90;94127.41;5014669;28;20453;-64
2023/04/02 05:02:29;;;;;;;3.03;2.80;;;7.80;98.30;;;7.77;61.30;94137.72;5013688;28;21083;-60
2023/04/02 05:04:57;;;;;;;2.90;2.70;;;7.80;98.30;;;7.78;61.83;94142.81;5010487;28;20456;-64
2023/04/02 05:07:28;;;;;;;5.13;2.47;;;7.80;98.30;;;7.79;61.42;94135.78;5010578;28;20465;-63
2023/04/02 05:09:58;;;;;;;2.30;1.90;;;7.80;98.20;;;7.79;61.90;94126.16;5011664;28;20469;-63
2023/04/02 05:12:33;;;;;;;10.10;2.43;;;7.80;98.40;;;7.84;61.83;94133.59;5015770;28;20460;-58
2023/04/02 05:15:03;;;;;;;4.40;2.10;;;7.90;98.30;;;7.87;62.08;94139.38;5012294;28;20555;-58
2023/04/02 05:17:32;;;;;;;2.53;2.33;;;7.90;98.60;;;7.98;62.03;94138.38;5013214;28;20461;-58
2023/04/02 05:20:05;;;;;;;5.23;2.07;;;8.00;98.80;;;8.18;61.86;94140.91;5012457;28;20520;-64
2023/04/02 05:22:36;;;;;;;3.17;1.90;;;8.10;98.50;;;8.33;61.12;94149.16;5012896;28;20487;-65
2023/04/02 05:25:16;;;;;;;4.60;2.13;;;8.30;98.20;;;8.45;60.52;94137.53;5017934;28;20488;-59
2023/04/02 05:27:46;;;;;;;8.73;2.07;;;8.40;97.90;;;8.54;60.31;94143.72;5015961;28;20445;-59
2023/04/02 05:30:33;;;;;;;2.57;1.80;;;8.50;97.60;;;8.60;60.05;94133.47;5015596;28;20539;-64
2023/04/02 05:33:03;;;;;;;3.67;2.03;;;8.60;97.50;;;8.73;59.86;94140.16;5014543;28;20453;-58
2023/04/02 05:35:34;;;;;;;7.20;2.23;;;8.70;97.50;;;8.90;60.24;94147.22;5010997;28;20544;-58
2023/04/02 05:38:01;;;;;;;4.00;2.30;;;8.90;97.20;;;9.10;59.60;94144.50;5016678;28;20441;-60
2023/04/02 05:40:33;;;;;;;2.63;2.43;;;9.00;97.10;;;9.24;59.24;94149.22;5013316;28;20484;-64
2023/04/02 05:43:01;;;;;;;3.80;2.80;;;9.10;96.80;;;9.38;59.11;94147.88;5014270;28;20484;-62
2023/04/02 05:45:31;;;;;;;3.93;2.30;;;9.30;96.70;;;9.57;58.77;94156.56;5011128;28;20473;-60
2023/04/02 05:48:00;;;;;;;4.63;2.30;;;9.40;96.50;;;9.81;58.43;94161.19;5016453;28;20461;-63
2023/04/02 05:50:30;;;;;;;6.93;2.70;;;9.70;96.30;;;10.11;57.97;94162.53;5017666;28;20478;-65
2023/04/02 05:53:03;;;;;;;2.80;2.60;;;9.90;96.00;;;10.35;57.88;94159.28;5017427;28;20803;-64
2023/04/02 05:55:48;;;;;;;2.13;1.93;;;10.20;95.20;;;10.62;57.39;94169.75;5017343;28;20500;-59
2023/04/02 05:58:22;;;;;;;2.70;1.97;;;10.40;95.10;;;10.89;57.13;94166.06;5015326;28;20516;-60
2023/04/02 06:01:25;;;;;;;3.77;1.53;;;10.70;94.80;;;11.15;56.93;94159.91;5012912;28;20473;-64
2023/04/02 06:03:57;;;;;;;2.07;1.13;;;10.90;94.70;;;11.46;56.37;94160.97;4976720;28;20456;-65
2023/04/02 06:06:48;;;;;;;1.23;1.13;;;11.20;94.40;;;11.76;56.06;94166.56;5014066;28;21093;-59
2023/04/02 06:09:19;;;;;;;1.47;1.10;;;11.50;94.00;;;12.06;55.36;94169.56;5014201;28;20548;-65
2023/04/02 06:11:50;;;;;;;5.20;2.30;;;11.80;93.60;;;12.36;55.21;94164.56;5015648;28;20729;-57
2023/04/02 06:14:17;;;;;;;1.53;1.20;;;12.10;93.60;;;12.66;55.11;94167.47;5013791;28;20982;-65
2023/04/02 06:16:45;;;;;;;3.83;1.83;;;12.30;93.20;;;12.97;53.97;94164.88;5016695;28;20480;-60
2023/04/02 06:19:18;;;;;;;6.97;2.17;;;12.70;92.80;;;13.30;54.07;94167.34;5015338;28;20510;-66
2023/04/02 06:21:48;;;;;;;12.27;2.30;;;12.90;92.80;;;13.58;53.07;94165.03;5020942;28;20457;-68
2023/04/02 06:24:18;;;;;;;11.63;2.20;;;13.20;91.80;;;13.87;52.67;94165.34;5017396;28;20460;-66
2023/04/02 06:26:49;;;;;;;6.33;1.93;;;13.50;91.30;;;14.14;52.34;94164.78;5016196;28;20553;-66
2023/04/02 06:29:19;;;;;;;2.23;1.87;;;13.80;90.70;;;14.41;51.27;94165.19;5012669;28;21036;-58
2023/04/02 06:31:50;;;;;;;1.70;1.60;;;14.10;89.70;;;14.68;51.25;94165.59;5014057;28;20785;-67
2023/04/02 06:34:19;;;;;;;3.53;1.83;;;14.30;89.20;;;14.98;50.79;94166.41;5012797;28;20516;-69
2023/04/02 06:36:46;;;;;;;5.43;1.73;;;14.60;88.70;;;15.28;50.09;94160.25;5014646;28;21201;-69
2023/04/02 06:39:18;;;;;;;3.87;1.30;;;14.90;87.80;;;15.58;49.40;94150.38;5014295;28;20885;-67
2023/04/02 06:41:47;;;;;;;5.53;1.57;;;15.20;85.20;;;15.88;49.53;94155.56;5012492;28;20568;-59
2023/04/02 06:44:17;;;;;;;2.10;1.27;;;15.50;85.20;;;16.20;48.71;94164.00;5016454;28;20460;-68
2023/04/02 06:46:46;;;;;;;6.70;1.30;;;15.80;83.40;;;16.40;48.09;94157.03;5010715;28;20474;-59
2023/04/02 06:49:18;;;;;;;1.67;1.33;;;16.00;81.20;;;16.66;47.51;94164.34;5015174;28;20459;-67
2023/04/02 06:51:46;;;;;;;5.30;2.10;;;16.30;80.30;;;16.93;47.42;94164.53;5013597;28;20476;-60
2023/04/02 06:54:14;;;;;;;2.80;1.77;;;16.50;79.50;;;17.20;46.95;94165.47;5011522;28;20464;-60
2023/04/02 06:56:44;;;;;;;4.40;1.40;;;16.80;78.00;;;17.41;45.95;94174.34;5013436;28;20498;-70
2023/04/02 06:59:13;;;;;;;1.60;1.27;;;17.00;75.50;;;17.56;45.68;94167.03;5014952;28;20462;-59
2023/04/02 07:01:43;;;;;;;1.20;0.90;;;17.10;74.20;;;17.78;45.09;94177.50;5014926;28;20482;-70
2023/04/02 07:04:10;;;;;;;1.30;1.00;;;17.30;73.20;;;18.02;45.18;94172.69;5011145;28;20481;-58
2023/04/02 07:06:38;;;;;;;3.57;1.50;;;17.50;72.90;;;18.30;44.38;94175.16;5011015;28;20470;-66
2023/04/02 07:09:05;;;;;;;1.80;1.20;;;17.80;72.20;;;18.65;43.46;94169.59;5014497;28;20462;-58
2023/04/02 07:11:32;;;;;;;1.83;1.30;;;18.10;69.60;;;18.86;42.62;94175.75;5012865;28;20499;-67
2023/04/02 07:14:00;;;;;;;2.13;1.43;;;18.40;67.50;;;18.97;42.45;94180.44;5013951;28;20453;-67
2023/04/02 07:16:30;;;;;;;3.47;1.10;;;18.50;66.60;;;19.12;42.63;94172.22;5012327;28;20477;-58
2023/04/02 07:18:58;;;;;;;1.53;0.60;;;18.70;66.20;;;19.45;41.85;94181.94;5015464;28;20567;-59
2023/04/02 07:21:26;;;;;;;0.97;0.80;;;18.90;65.30;;;19.81;41.18;94183.22;5011568;28;20473;-59
2023/04/02 07:23:53;;;;;;;1.00;0.70;;;19.30;63.90;;;20.17;41.09;94187.09;5009621;28;20493;-65
2023/04/02 07:26:24;;;;;;;3.90;1.27;;;19.60;63.50;;;20.54;38.92;94190.75;5012018;28;20519;-59
2023/04/02 07:28:51;;;;;;;14.93;1.67;;;20.00;60.80;;;20.95;38.16;94181.31;5011138;28;20797;-67
2023/04/02 07:31:19;;;;;;;4.70;1.17;;;20.40;59.00;;;21.39;38.57;94197.31;5016470;28;20492;-66
2023/04/02 07:33:48;;;;;;;14.30;1.50;;;20.90;58.10;;;21.85;38.25;94193.28;5008528;28;20998;-66
2023/04/02 07:36:16;;;;;;;17.67;1.43;;;21.30;58.40;;;22.31;37.51;94192.91;5018269;28;20481;-65
2023/04/02 07:38:43;;;;;;;2.90;0.70;;;21.70;56.70;;;22.71;36.92;94190.38;5009416;28;20449;-66
2023/04/02 07:41:11;;;;;;;1.33;0.80;;;22.10;56.30;;;22.87;36.10;94196.09;5013353;28;20472;-58
2023/04/02 07:43:38;;;;;;;10.97;0.90;;;22.30;54.40;;;22.89;35.52;94194.00;5009607;28;20485;-64
2023/04/02 07:46:06;;;;;;;13.50;2.00;;;22.40;53.70;;;23.13;36.43;94196.69;5014139;28;20477;-59
2023/04/02 07:48:33;;;;;;;11.87;0.90;;;22.60;54.30;;;23.53;35.90;94198.63;5015433;28;20448;-66
2023/04/02 07:51:02;;;;;;;2.90;0.90;;;23.00;53.00;;;23.87;35.42;94199.59;5012312;28;20487;-59
2023/04/02 07:53:32;;;;;;;6.00;0.97;;;23.30;52.60;;;23.77;34.91;94200.19;5009540;28;20454;-66
2023/04/02 07:56:00;;;;;;;8.00;1.10;;;23.40;51.50;;;23.38;33.73;94197.25;5010189;28;20470;-58
2023/04/02 07:58:28;;;;;;;4.87;1.00;;;23.20;48.70;;;22.95;34.73;94190.38;5012967;28;20843;-59
2023/04/02 08:00:55;;;;;;;21.67;1.23;;;22.90;51.10;;;22.78;35.10;94198.31;5017304;28;20481;-66
2023/04/02 08:03:22;;;;;;;27.33;1.40;;;22.70;50.50;;;22.81;34.05;94200.53;5012088;28;20497;-59
2023/04/02 08:05:52;;;;;;;14.60;1.73;;;22.70;48.40;;;22.65;34.54;94203.88;5009768;28;20553;-58
2023/04/02 08:08:21;;;;;;;3.73;1.40;;;22.60;49.90;;;22.63;35.27;94200.63;5010919;28;20524;-66
2023/04/02 08:10:48;;;;;;;45.83;2.17;;;22.50;50.40;;;22.68;34.92;94214.97;5016558;28;20900;-66
2023/04/02 08:13:16;;;;;;;34.07;3.90;;;22.50;50.30;;;22.65;33.64;94196.69;5015554;28;20453;-59
2023/04/02 08:15:44;;;;;;;51.83;4.90;;;22.50;49.00;;;22.80;35.01;94206.94;5011498;28;20473;-65
2023/04/02 08:18:11;;;;;;;21.07;2.10;;;22.60;50.50;;;23.32;34.63;94202.75;5018585;28;20449;-59
2023/04/02 08:20:39;;;;;;;42.43;2.60;;;23.00;50.70;;;23.91;33.35;94210.69;5014456;28;20469;-66
2023/04/02 08:23:14;;;;;;;15.03;1.63;;;23.60;48.90;;;24.52;32.39;94211.81;5019320;28;20492;-59
2023/04/02 08:25:42;;;;;;;18.53;1.83;;;24.20;49.60;;;24.94;30.93;94213.31;5017748;28;20472;-59
2023/04/02 08:28:10;;;;;;;34.63;2.27;;;24.80;45.80;;;25.24;31.89;94215.63;5019453;28;20452;-59
2023/04/02 08:30:37;;;;;;;11.60;1.90;;;25.20;46.70;;;25.57;32.56;94216.63;5017856;28;20481;-57
2023/04/02 08:33:05;;;;;;;2.10;0.73;;;25.60;47.20;;;25.95;31.04;94214.16;5018695;28;20475;-65
2023/04/02 08:35:32;;;;;;;25.00;2.23;;;26.00;44.70;;;26.29;31.68;94214.00;5016120;28;20492;-64
2023/04/02 08:38:00;;;;;;;7.20;1.87;;;26.30;46.00;;;26.64;30.99;94208.09;5019646;28;20456;-58
2023/04/02 08:40:32;;;;;;;20.83;1.70;;;26.70;45.70;;;26.93;30.52;94215.13;5016575;28;20468;-59
2023/04/02 08:43:18;;;;;;;36.33;1.80;;;27.00;44.90;;;27.17;29.08;94212.84;5017194;28;20500;-58
2023/04/02 08:45:56;;;;;;;23.47;2.53;;;27.20;42.30;;;27.34;29.05;94212.72;5016986;28;20482;-61
2023/04/02 08:48:23;;;;;;;49.40;3.00;;;27.30;42.70;;;27.53;29.36;94213.13;5016369;28;20467;-58
2023/04/02 08:50:50;;;;;;;22.27;1.87;;;27.50;42.80;;;27.77;28.83;94216.19;5017771;28;20562;-67
2023/04/02 08:53:21;;;;;;;21.27;1.10;;;27.60;42.70;;;27.72;27.95;94216.19;5019457;28;20454;-67
2023/04/02 08:55:54;;;;;;;23.93;1.80;;;27.60;41.10;;;27.38;27.69;94218.44;5017170;28;21023;-67
2023/04/02 08:58:32;;;;;;;12.60;1.40;;;27.30;40.40;;;26.94;28.39;94208.66;5015027;28;20862;-67
2023/04/02 09:01:01;;;;;;;56.67;3.33;;;26.90;41.70;;;26.46;29.28;94217.41;5013487;28;21045;-59
2023/04/02 09:03:30;;;;;;;19.33;1.07;;;26.40;42.10;;;26.02;29.60;94209.38;5016162;28;20873;-59
2023/04/02 09:05:58;;;;;;;40.07;2.30;;;26.00;42.50;;;25.63;29.77;94214.84;5019802;28;21019;-61
2023/04/02 09:08:26;;;;;;;15.03;1.20;;;25.60;42.30;;;25.24;30.13;94222.91;5014332;28;20972;-67
2023/04/02 09:10:58;;;;;;;39.30;2.77;;;25.10;42.80;;;24.78;29.98;94209.56;5012348;28;20469;-59
2023/04/02 09:13:29;;;;;;;14.00;1.37;;;24.70;42.70;;;24.33;30.88;94216.56;5017100;28;20444;-67
2023/04/02 09:16:01;;;;;;;14.13;1.37;;;24.30;43.10;;;23.95;31.58;94215.34;5012676;28;20473;-58
2023/04/02 09:18:29;;;;;;;35.57;1.90;;;23.80;44.00;;;23.59;31.09;94214.63;5012892;28;20480;-58
2023/04/02 09:20:56;;;;;;;60.83;4.50;;;23.50;44.70;;;23.30;30.94;94211.06;5012464;28;20465;-59
2023/04/02 09:23:24;;;;;;;17.13;1.37;;;23.10;44.00;;;23.04;32.21;94223.03;5016835;28;20497;-59
2023/04/02 09:25:55;;;;;;;11.93;1.20;;;22.80;44.80;;;22.70;32.38;94222.78;5014499;28;20470;-66
2023/04/02 09:28:24;;;;;;;9.10;1.10;;;22.50;44.90;;;22.37;32.46;94221.44;5014749;28;20881;-59
2023/04/02 09:31:04;;;;;;;23.63;3.07;;;22.20;45.30;;;22.12;32.24;94206.31;5019130;28;20485;-59
2023/04/02 09:33:45;;;;;;;24.60;2.00;;;21.90;45.10;;;21.91;32.11;94204.13;5018972;28;20464;-60
2023/04/02 09:36:35;;;;;;;11.53;1.43;;;21.70;45.60;;;21.84;33.23;94210.41;5016541;28;20475;-66
2023/04/02 09:39:07;;;;;;;26.77;2.07;;;21.60;46.20;;;21.98;33.10;94204.84;5014599;28;20468;-67
2023/04/02 09:41:35;;;;;;;32.03;1.77;;;21.60;46.30;;;22.06;32.70;94196.53;5015949;28;20501;-59
2023/04/02 09:44:23;;;;;;;13.93;2.50;;;21.60;46.00;;;22.01;32.66;94199.03;5013403;28;20503;-67
2023/04/02 09:46:54;;;;;;;17.03;1.57;;;21.60;45.90;;;21.88;32.67;94200.03;5014319;28;20481;-59
2023/04/02 09:49:24;;;;;;;1.60;1.03;;;21.60;46.10;;;21.70;32.70;94192.84;5018895;28;20466;-59
2023/04/02 09:52:18;;;;;;;27.03;1.47;;;21.40;46.10;;;21.52;32.76;94200.91;5014779;28;21026;-65
2023/04/02 09:54:46;;;;;;;4.73;0.90;;;21.30;46.40;;;21.37;32.77;94188.69;5016446;28;21104;-66
2023/04/02 09:57:22;;;;;;;8.13;1.10;;;21.10;45.70;;;21.26;33.84;94186.78;5015955;28;21045;-58
2023/04/02 10:00:16;;;;;;;3.97;0.97;;;21.00;46.90;;;21.23;32.24;94187.22;5016099;28;20524;-57
2023/04/02 10:02:46;;;;;;;17.77;1.63;;;20.90;45.50;;;21.12;33.40;94184.25;5018691;28;20886;-65
2023/04/02 10:05:21;;;;;;;4.00;1.30;;;20.80;46.20;;;20.90;33.23;94185.72;5014544;28;20496;-64
2023/04/02 10:07:48;;;;;;;46.50;2.60;;;20.70;46.30;;;20.70;33.69;94188.56;5014227;28;20539;-66
2023/04/02 10:10:20;;;;;;;30.33;2.70;;;20.50;46.60;;;20.54;33.66;94187.22;5016864;28;20475;-65
2023/04/02 10:12:55;;;;;;;15.53;1.10;;;20.30;47.10;;;20.49;33.84;94181.72;5014166;28;20530;-60
2023/04/02 10:15:29;;;;;;;4.40;1.23;;;20.20;47.30;;;20.38;33.89;94181.38;5016209;28;20591;-72
2023/04/02 10:18:07;;;;;;;23.10;1.87;;;20.10;46.90;;;20.37;34.41;94174.44;5012816;28;20456;-71
2023/04/02 10:20:36;;;;;;;4.00;0.70;;;20.10;47.70;;;20.64;34.50;94168.06;5013079;28;20556;-59
2023/04/02 10:23:03;;;;;;;6.30;1.10;;;20.20;47.80;;;20.89;33.83;94174.19;5020089;28;20449;-70
2023/04/02 10:25:33;;;;;;;1.57;0.80;;;20.50;47.60;;;21.04;33.42;94179.19;5013372;28;20473;-59
2023/04/02 10:28:06;;;;;;;1.07;0.70;;;20.60;47.40;;;21.06;33.10;94170.94;5015040;28;20460;-60
2023/04/02 10:30:39;;;;;;;10.17;0.93;;;20.70;46.50;;;20.97;33.16;94166.94;5021095;28;20508;-70
2023/04/02 10:33:12;;;;;;;2.10;0.97;;;20.60;46.30;;;20.87;33.69;94172.81;5014292;28;20446;-71
2023/04/02 10:35:44;;;;;;;22.50;2.40;;;20.60;46.80;;;20.83;33.93;94176.94;5012835;28;20466;-59
2023/04/02 10:38:27;;;;;;;1.13;0.70;;;20.50;47.30;;;20.83;33.57;94179.63;5011653;28;20454;-61
2023/04/02 10:40:58;;;;;;;8.93;1.30;;;20.50;46.80;;;20.73;33.93;94183.59;5008055;28;20493;-70
2023/04/02 10:43:49;;;;;;;3.43;1.07;;;20.50;47.30;;;20.62;34.35;94175.44;5014563;28;20488;-70
2023/04/02 10:46:21;;;;;;;3.07;1.30;;;20.40;47.20;;;20.46;34.74;94182.16;5014324;28;20493;-59